Time;durP1;ratioP1;P1;durP2;ratioP2;P2;SDS_P1;SDS_P2;PMS_P1;PMS_P2;Temp;Humidity;BMP_temperature;BMP_pressure;BME280_temperature;BME280_humidity;BME280_pressure;Samples;Min_cycle;Max_cycle;Signal;HPM_P1;HPM_P2
2022/11/28 00:01:44;;;;;;;12.48;6.20;;;;;;;;;;5086542;28;20035;-72
2022/11/28 00:04:11;;;;;;;8.07;5.05;;;;;;;;;;5101176;28;20032;-73
2022/11/28 00:06:39;;;;;;;8.10;5.28;;;;;;;;;;5042435;28;21098;-71
2022/11/28 00:09:06;;;;;;;6.53;4.60;;;;;;;;;;5025951;28;20731;-71
2022/11/28 00:11:32;;;;;;;8.40;5.32;;;;;;;;;;5023990;28;20029;-73
2022/11/28 00:13:58;;;;;;;6.85;4.85;;;;;;;;;;5028124;28;20044;-73
2022/11/28 00:16:24;;;;;;;5.65;3.50;;;;;;;;;;5028001;28;20028;-70
2022/11/28 00:18:52;;;;;;;5.85;3.70;;;;;;;;;;5023651;28;20065;-71
2022/11/28 00:21:19;;;;;;;5.93;4.22;;;;;;;;;;5018541;28;20044;-72
2022/11/28 00:23:47;;;;;;;6.43;4.07;;;;;;;;;;5033034;28;20038;-71
2022/11/28 00:26:14;;;;;;;8.13;4.60;;;;;;;;;;5023181;28;20030;-72
2022/11/28 00:28:40;;;;;;;18.13;7.90;;;;;;;;;;5025017;28;20049;-71
2022/11/28 00:31:14;;;;;;;5.65;3.28;;;;;;;;;;5031006;28;20034;-72
2022/11/28 00:33:40;;;;;;;;;;;;;;;;;;5024095;28;20376;-73
2022/11/28 00:36:06;;;;;;;4.90;3.42;;;;;;;;;;5023946;28;19955;-75
2022/11/28 00:38:32;;;;;;;5.78;2.90;;;;;;;;;;5030924;28;20038;-75
2022/11/28 00:41:29;;;;;;;5.25;3.20;;;;;;;;;;5021275;28;20080;-72
2022/11/28 00:43:55;;;;;;;4.80;3.50;;;;;;;;;;5024257;28;20499;-71
2022/11/28 00:46:23;;;;;;;5.43;3.08;;;;;;;;;;5021041;28;20044;-72
2022/11/28 00:48:49;;;;;;;4.72;3.08;;;;;;;;;;5003480;28;20049;-72
2022/11/28 00:51:19;;;;;;;5.00;2.78;;;;;;;;;;5024836;28;20037;-72
2022/11/28 00:53:48;;;;;;;4.55;3.17;;;;;;;;;;5026912;28;20459;-73
2022/11/28 00:56:17;;;;;;;4.55;3.10;;;;;;;;;;5024138;28;20021;-73
2022/11/28 00:58:43;;;;;;;4.57;3.33;;;;;;;;;;5024062;28;20198;-72
2022/11/28 01:01:11;;;;;;;5.35;3.42;;;;;;;;;;5020148;28;20034;-72
2022/11/28 01:03:37;;;;;;;5.32;3.60;;;;;;;;;;5024782;28;20091;-73
2022/11/28 01:06:05;;;;;;;6.78;3.60;;;;;;;;;;5023458;28;20045;-74
2022/11/28 01:08:31;;;;;;;5.55;3.38;;;;;;;;;;5026981;28;20041;-74
2022/11/28 01:10:57;;;;;;;5.82;4.28;;;;;;;;;;5021904;28;20052;-74
2022/11/28 01:13:23;;;;;;;8.80;5.68;;;;;;;;;;5022727;28;20530;-74
2022/11/28 01:15:49;;;;;;;11.75;8.15;;;;;;;;;;5008159;28;20111;-74
2022/11/28 01:18:14;;;;;;;15.32;9.80;;;;;;;;;;5027634;28;20476;-74
2022/11/28 01:20:42;;;;;;;16.75;10.85;;;;;;;;;;5020207;28;20026;-76
2022/11/28 01:23:08;;;;;;;17.08;11.45;;;;;;;;;;5018646;28;20104;-76
2022/11/28 01:25:34;;;;;;;16.05;10.27;;;;;;;;;;5035584;28;20055;-75
2022/11/28 01:28:01;;;;;;;16.00;9.65;;;;;;;;;;5014120;28;20416;-75
2022/11/28 01:30:27;;;;;;;15.07;9.18;;;;;;;;;;5019765;28;20044;-74
2022/11/28 01:32:52;;;;;;;14.60;8.50;;;;;;;;;;5021319;28;20478;-74
2022/11/28 01:35:18;;;;;;;10.27;7.13;;;;;;;;;;5023645;28;20029;-75
2022/11/28 01:37:44;;;;;;;10.48;6.90;;;;;;;;;;5027623;28;20033;-75
2022/11/28 01:40:11;;;;;;;11.18;7.10;;;;;;;;;;5025523;28;20025;-75
2022/11/28 01:42:37;;;;;;;13.95;8.90;;;;;;;;;;5031516;28;20042;-74
2022/11/28 01:45:11;;;;;;;12.10;8.60;;;;;;;;;;5026788;28;20386;-75
2022/11/28 01:47:37;;;;;;;10.82;6.95;;;;;;;;;;5018727;28;20037;-74
2022/11/28 01:50:05;;;;;;;10.88;6.50;;;;;;;;;;5025391;28;20100;-74
2022/11/28 01:52:32;;;;;;;9.52;6.70;;;;;;;;;;5024069;28;20069;-74
2022/11/28 01:55:02;;;;;;;10.55;6.78;;;;;;;;;;5026042;28;20056;-75
2022/11/28 01:57:28;;;;;;;11.00;7.03;;;;;;;;;;5022489;28;20554;-74
2022/11/28 02:00:04;;;;;;;10.57;6.72;;;;;;;;;;5023180;28;20116;-76
2022/11/28 02:02:40;;;;;;;12.02;7.65;;;;;;;;;;5028697;28;20531;-74
2022/11/28 02:05:06;;;;;;;10.18;7.18;;;;;;;;;;5025193;28;20037;-75
2022/11/28 02:07:33;;;;;;;11.65;7.60;;;;;;;;;;5026336;28;20080;-75
2022/11/28 02:10:01;;;;;;;10.27;6.90;;;;;;;;;;5036871;28;20038;-75
2022/11/28 02:12:45;;;;;;;11.15;6.75;;;;;;;;;;5025079;28;20368;-74
2022/11/28 02:15:37;;;;;;;11.27;6.50;;;;;;;;;;5037360;28;20175;-74
2022/11/28 02:18:32;;;;;;;10.82;6.82;;;;;;;;;;5021487;28;20038;-75
2022/11/28 02:21:22;;;;;;;10.75;7.82;;;;;;;;;;4985805;28;20400;-74
2022/11/28 02:24:13;;;;;;;15.02;7.65;;;;;;;;;;5024546;28;20476;-75
2022/11/28 02:27:22;;;;;;;10.98;7.57;;;;;;;;;;5027573;28;20053;-74
2022/11/28 02:29:59;;;;;;;13.40;8.13;;;;;;;;;;5030370;28;20037;-74
2022/11/28 02:32:47;;;;;;;13.18;7.55;;;;;;;;;;5040641;28;20033;-75
2022/11/28 02:35:33;;;;;;;15.27;8.75;;;;;;;;;;5020708;28;20032;-76
2022/11/28 02:38:07;;;;;;;12.63;8.25;;;;;;;;;;5027934;28;20506;-75
2022/11/28 02:40:52;;;;;;;19.33;9.88;;;;;;;;;;5025001;28;20041;-75
2022/11/28 02:43:42;;;;;;;15.38;8.88;;;;;;;;;;5019223;28;20036;-75
2022/11/28 02:46:41;;;;;;;13.93;7.32;;;;;;;;;;5020768;28;20099;-75
2022/11/28 02:49:14;;;;;;;11.10;7.22;;;;;;;;;;5025594;28;20122;-74
2022/11/28 02:51:54;;;;;;;11.90;7.30;;;;;;;;;;5021241;28;20052;-74
2022/11/28 02:54:21;;;;;;;10.75;6.85;;;;;;;;;;5023238;28;20041;-74
2022/11/28 02:56:48;;;;;;;9.88;7.18;;;;;;;;;;5020858;28;20104;-75
2022/11/28 02:59:37;;;;;;;11.55;6.95;;;;;;;;;;5020626;28;20034;-74
2022/11/28 03:02:29;;;;;;;13.45;7.75;;;;;;;;;;5022950;28;20053;-75
2022/11/28 03:05:01;;;;;;;12.98;7.68;;;;;;;;;;5024093;28;20040;-74
2022/11/28 03:07:48;;;;;;;12.73;7.47;;;;;;;;;;5018371;28;20036;-75
2022/11/28 03:10:38;;;;;;;13.48;8.13;;;;;;;;;;5020802;28;20441;-74
2022/11/28 03:13:28;;;;;;;11.95;7.43;;;;;;;;;;5021758;28;20080;-75
2022/11/28 03:16:30;;;;;;;11.63;7.00;;;;;;;;;;5023517;28;20036;-75
2022/11/28 03:19:05;;;;;;;12.40;7.35;;;;;;;;;;5019060;28;20030;-75
2022/11/28 03:21:46;;;;;;;11.13;7.07;;;;;;;;;;5036362;28;20057;-74
2022/11/28 03:24:33;;;;;;;11.35;6.97;;;;;;;;;;5023037;28;20495;-75
2022/11/28 03:27:31;;;;;;;12.13;6.97;;;;;;;;;;5024993;28;20045;-75
2022/11/28 03:30:05;;;;;;;10.35;6.75;;;;;;;;;;5022304;28;20045;-75
2022/11/28 03:32:34;;;;;;;11.18;6.35;;;;;;;;;;5020547;28;20034;-75
2022/11/28 03:35:17;;;;;;;10.63;6.32;;;;;;;;;;5020138;28;20025;-76
2022/11/28 03:37:51;;;;;;;13.85;6.97;;;;;;;;;;5036027;28;20036;-75
2022/11/28 03:40:22;;;;;;;10.93;6.15;;;;;;;;;;5017201;28;20479;-75
2022/11/28 03:43:04;;;;;;;8.15;5.40;;;;;;;;;;5024598;28;20034;-75
2022/11/28 03:45:37;;;;;;;8.90;5.75;;;;;;;;;;5025656;28;20041;-75
2022/11/28 03:48:15;;;;;;;9.85;5.90;;;;;;;;;;5020674;28;20030;-75
2022/11/28 03:50:46;;;;;;;11.07;6.68;;;;;;;;;;5048464;28;20121;-75
2022/11/28 03:53:25;;;;;;;12.07;7.10;;;;;;;;;;5049571;28;20538;-75
2022/11/28 03:56:02;;;;;;;11.35;6.38;;;;;;;;;;5045285;28;20033;-75
2022/11/28 03:58:54;;;;;;;8.27;5.72;;;;;;;;;;5041814;28;20036;-75
2022/11/28 04:01:26;;;;;;;8.13;5.85;;;;;;;;;;5050751;28;20041;-75
2022/11/28 04:04:06;;;;;;;8.68;5.38;;;;;;;;;;5045717;28;20037;-74
2022/11/28 04:06:56;;;;;;;9.77;6.00;;;;;;;;;;5042891;28;20076;-76
2022/11/28 04:09:38;;;;;;;8.18;5.35;;;;;;;;;;5048834;28;20052;-75
2022/11/28 04:12:09;;;;;;;8.75;5.28;;;;;;;;;;5024703;28;20497;-73
2022/11/28 04:14:44;;;;;;;7.43;5.15;;;;;;;;;;5049188;28;20052;-75
2022/11/28 04:17:24;;;;;;;9.38;5.78;;;;;;;;;;5040252;28;20062;-74
2022/11/28 04:19:56;;;;;;;10.60;5.15;;;;;;;;;;5045555;28;20075;-75
2022/11/28 04:22:29;;;;;;;8.02;5.38;;;;;;;;;;5045641;28;20037;-75
2022/11/28 04:25:09;;;;;;;7.25;4.68;;;;;;;;;;5046108;28;20479;-75
2022/11/28 04:27:43;;;;;;;7.38;5.38;;;;;;;;;;5050273;28;20088;-75
2022/11/28 04:30:11;;;;;;;8.82;5.43;;;;;;;;;;5042142;28;20045;-75
2022/11/28 04:32:45;;;;;;;10.38;5.90;;;;;;;;;;5040415;28;20406;-75
2022/11/28 04:35:18;;;;;;;13.18;5.72;;;;;;;;;;5048748;28;20106;-75
2022/11/28 04:37:47;;;;;;;13.20;6.38;;;;;;;;;;5049678;28;20029;-75
2022/11/28 04:40:15;;;;;;;14.43;7.18;;;;;;;;;;5051515;28;20032;-74
2022/11/28 04:42:52;;;;;;;16.38;8.68;;;;;;;;;;5052714;28;20033;-75
2022/11/28 04:45:39;;;;;;;13.73;6.78;;;;;;;;;;5053744;28;20456;-76
2022/11/28 04:48:06;;;;;;;9.10;5.65;;;;;;;;;;5047526;28;20083;-74
2022/11/28 04:50:46;;;;;;;9.45;5.68;;;;;;;;;;5033339;28;20510;-75
2022/11/28 04:53:18;;;;;;;8.32;5.57;;;;;;;;;;5033370;28;20061;-74
2022/11/28 04:55:50;;;;;;;8.45;5.13;;;;;;;;;;5032520;28;20033;-74
2022/11/28 04:58:27;;;;;;;9.25;5.22;;;;;;;;;;5034757;28;20087;-74
2022/11/28 05:00:54;;;;;;;6.07;4.43;;;;;;;;;;5037728;28;20090;-75
2022/11/28 05:03:22;;;;;;;6.00;3.95;;;;;;;;;;5053657;28;20021;-75
2022/11/28 05:05:50;;;;;;;5.22;3.78;;;;;;;;;;5053501;28;20041;-75
2022/11/28 05:08:17;;;;;;;8.90;5.47;;;;;;;;;;5051934;28;20055;-74
2022/11/28 05:10:44;;;;;;;5.57;3.92;;;;;;;;;;5053794;28;20099;-75
2022/11/28 05:13:10;;;;;;;6.15;3.80;;;;;;;;;;5054705;28;20029;-76
2022/11/28 05:15:36;;;;;;;6.47;4.32;;;;;;;;;;5052001;28;20486;-75
2022/11/28 05:18:02;;;;;;;8.68;3.72;;;;;;;;;;5053387;28;20108;-75
2022/11/28 05:20:28;;;;;;;8.40;3.95;;;;;;;;;;5053377;28;20125;-75
2022/11/28 05:22:54;;;;;;;7.07;4.40;;;;;;;;;;5035285;28;20051;-75
2022/11/28 05:25:20;;;;;;;5.93;4.00;;;;;;;;;;5050720;28;20502;-75
2022/11/28 05:27:46;;;;;;;6.25;4.05;;;;;;;;;;5031529;28;20077;-75
2022/11/28 05:30:12;;;;;;;5.90;4.25;;;;;;;;;;5048281;28;20072;-75
2022/11/28 05:32:38;;;;;;;7.10;5.10;;;;;;;;;;5048103;28;20098;-75
2022/11/28 05:35:06;;;;;;;7.05;4.97;;;;;;;;;;5032597;28;20045;-74
2022/11/28 05:37:33;;;;;;;9.48;5.65;;;;;;;;;;5052276;28;20032;-75
2022/11/28 05:39:59;;;;;;;9.52;5.30;;;;;;;;;;5052276;28;20029;-76
2022/11/28 05:42:25;;;;;;;8.45;5.88;;;;;;;;;;5054516;28;20024;-75
2022/11/28 05:44:51;;;;;;;8.10;4.68;;;;;;;;;;5036616;28;20130;-76
2022/11/28 05:47:17;;;;;;;7.07;4.78;;;;;;;;;;5067762;28;20486;-75
2022/11/28 05:49:45;;;;;;;6.68;4.88;;;;;;;;;;5049516;28;20086;-74
2022/11/28 05:52:11;;;;;;;7.05;4.72;;;;;;;;;;5047244;28;20498;-75
2022/11/28 05:54:37;;;;;;;7.00;5.38;;;;;;;;;;5052015;28;20043;-75
2022/11/28 05:57:05;;;;;;;6.85;4.93;;;;;;;;;;5051090;28;20441;-75
2022/11/28 05:59:31;;;;;;;6.50;4.78;;;;;;;;;;5052709;28;20033;-76
2022/11/28 06:01:57;;;;;;;8.18;5.20;;;;;;;;;;5048838;28;20072;-75
2022/11/28 06:04:23;;;;;;;7.30;5.05;;;;;;;;;;5052901;28;20382;-75
2022/11/28 06:06:50;;;;;;;9.07;4.82;;;;;;;;;;5052913;28;20029;-75
2022/11/28 06:09:16;;;;;;;7.55;5.00;;;;;;;;;;5052661;28;20471;-74
2022/11/28 06:11:43;;;;;;;6.57;5.00;;;;;;;;;;5052711;28;20060;-75
2022/11/28 06:14:10;;;;;;;8.65;5.78;;;;;;;;;;5052810;28;20033;-75
2022/11/28 06:16:36;;;;;;;7.85;5.82;;;;;;;;;;5053036;28;20094;-75
2022/11/28 06:19:04;;;;;;;7.28;4.90;;;;;;;;;;5053855;28;20052;-75
2022/11/28 06:21:31;;;;;;;8.00;5.03;;;;;;;;;;5052620;28;20017;-75
2022/11/28 06:23:58;;;;;;;11.20;6.20;;;;;;;;;;5052943;28;20044;-75
2022/11/28 06:26:26;;;;;;;12.73;7.22;;;;;;;;;;5052260;28;20051;-73
2022/11/28 06:28:54;;;;;;;15.80;8.52;;;;;;;;;;5052235;28;20459;-74
2022/11/28 06:31:22;;;;;;;24.50;14.65;;;;;;;;;;5052505;28;20029;-75
2022/11/28 06:33:50;;;;;;;23.98;14.60;;;;;;;;;;5047245;28;20036;-75
2022/11/28 06:36:17;;;;;;;10.50;6.82;;;;;;;;;;5041009;28;20116;-76
2022/11/28 06:38:43;;;;;;;8.70;5.45;;;;;;;;;;5039781;28;20033;-75
2022/11/28 06:41:12;;;;;;;7.68;5.20;;;;;;;;;;5048353;28;20390;-76
2022/11/28 06:43:39;;;;;;;10.52;6.55;;;;;;;;;;5050197;28;20033;-76
2022/11/28 06:46:15;;;;;;;11.10;8.15;;;;;;;;;;5050161;28;20398;-76
2022/11/28 06:48:40;;;;;;;12.27;7.78;;;;;;;;;;5051843;28;20549;-75
2022/11/28 06:51:07;;;;;;;9.90;5.95;;;;;;;;;;5050103;28;20032;-76
2022/11/28 06:53:33;;;;;;;13.13;8.98;;;;;;;;;;5051444;28;20039;-76
2022/11/28 06:56:07;;;;;;;8.15;5.63;;;;;;;;;;5049842;28;20112;-75
2022/11/28 06:58:34;;;;;;;12.57;8.95;;;;;;;;;;5033616;28;20029;-75
2022/11/28 07:01:16;;;;;;;9.30;6.43;;;;;;;;;;5047948;28;20037;-75
2022/11/28 07:03:43;;;;;;;10.68;6.90;;;;;;;;;;5049750;28;20040;-75
2022/11/28 07:06:11;;;;;;;11.43;6.47;;;;;;;;;;5049957;28;20021;-76
2022/11/28 07:08:38;;;;;;;10.70;6.50;;;;;;;;;;5032504;28;20041;-76
2022/11/28 07:11:23;;;;;;;9.13;6.20;;;;;;;;;;5050428;28;21201;-76
2022/11/28 07:13:50;;;;;;;9.75;6.65;;;;;;;;;;5051239;28;20104;-75
2022/11/28 07:16:42;;;;;;;8.68;6.13;;;;;;;;;;5046361;28;20028;-75
2022/11/28 07:19:12;;;;;;;10.90;6.55;;;;;;;;;;5037287;28;20095;-77
2022/11/28 07:21:38;;;;;;;12.25;6.05;;;;;;;;;;5037751;28;20033;-76
2022/11/28 07:24:05;;;;;;;10.70;7.30;;;;;;;;;;5034421;28;20031;-76
2022/11/28 07:26:32;;;;;;;11.55;6.07;;;;;;;;;;5047478;28;20025;-77
2022/11/28 07:29:01;;;;;;;12.68;7.60;;;;;;;;;;5048419;28;20122;-76
2022/11/28 07:31:30;;;;;;;11.90;8.05;;;;;;;;;;5047846;28;20398;-78
2022/11/28 07:34:04;;;;;;;11.05;6.38;;;;;;;;;;5053090;28;20037;-77
2022/11/28 07:36:31;;;;;;;9.77;6.20;;;;;;;;;;5052645;28;20032;-78
2022/11/28 07:38:59;;;;;;;9.98;6.45;;;;;;;;;;5038481;28;20025;-76
2022/11/28 07:41:26;;;;;;;10.10;6.70;;;;;;;;;;5041214;28;20046;-76
2022/11/28 07:44:00;;;;;;;10.55;7.13;;;;;;;;;;5039785;28;20025;-76
2022/11/28 07:46:29;;;;;;;10.70;6.95;;;;;;;;;;5036574;28;20036;-73
2022/11/28 07:48:55;;;;;;;21.48;9.60;;;;;;;;;;5038935;28;20045;-73
2022/11/28 07:51:25;;;;;;;9.98;6.50;;;;;;;;;;5040329;28;20033;-76
2022/11/28 07:53:51;;;;;;;24.52;11.30;;;;;;;;;;5040260;28;20030;-77
2022/11/28 07:56:20;;;;;;;25.52;7.07;;;;;;;;;;5054858;28;20131;-76
2022/11/28 07:58:47;;;;;;;26.42;10.15;;;;;;;;;;5044788;28;20090;-76
2022/11/28 08:01:21;;;;;;;23.58;11.25;;;;;;;;;;5043462;28;20110;-77
2022/11/28 08:03:47;;;;;;;22.08;8.00;;;;;;;;;;5037110;28;20064;-77
2022/11/28 08:09:53;;;;;;;59.80;9.43;;;;;;;;;;5041283;28;20083;-75
2022/11/28 08:12:19;;;;;;;15.75;6.70;;;;;;;;;;5055073;28;20450;-76
2022/11/28 08:14:45;;;;;;;25.77;7.70;;;;;;;;;;5045828;28;20021;-75
2022/11/28 08:17:11;;;;;;;17.48;6.07;;;;;;;;;;5044859;28;20029;-75
2022/11/28 08:19:37;;;;;;;41.70;9.93;;;;;;;;;;5044788;28;20036;-77
2022/11/28 08:22:03;;;;;;;23.65;8.88;;;;;;;;;;5039156;28;20108;-76
2022/11/28 08:24:28;;;;;;;9.30;5.75;;;;;;;;;;5040432;28;20037;-76
2022/11/28 08:26:54;;;;;;;11.32;6.53;;;;;;;;;;5036321;28;20057;-77
2022/11/28 08:29:20;;;;;;;9.73;5.20;;;;;;;;;;5038977;28;20128;-75
2022/11/28 08:31:46;;;;;;;6.80;4.70;;;;;;;;;;5040969;28;20041;-78
2022/11/28 08:34:12;;;;;;;22.45;7.90;;;;;;;;;;5044819;28;20109;-77
2022/11/28 08:36:38;;;;;;;25.02;8.63;;;;;;;;;;5039343;28;20102;-76
2022/11/28 08:39:05;;;;;;;11.80;5.72;;;;;;;;;;5043639;28;20513;-77
2022/11/28 08:41:31;;;;;;;8.30;4.72;;;;;;;;;;5046590;28;20168;-77
2022/11/28 08:43:57;;;;;;;21.17;8.15;;;;;;;;;;5046320;28;20112;-74
2022/11/28 08:46:24;;;;;;;15.23;6.53;;;;;;;;;;5058386;28;20186;-76
2022/11/28 08:48:51;;;;;;;9.38;5.95;;;;;;;;;;5041966;28;20091;-76
2022/11/28 08:51:24;;;;;;;8.80;5.60;;;;;;;;;;5046413;28;20099;-74
2022/11/28 08:53:51;;;;;;;12.43;5.90;;;;;;;;;;5041911;28;20072;-75
2022/11/28 08:56:17;;;;;;;10.27;6.10;;;;;;;;;;5046748;28;20029;-76
2022/11/28 08:58:43;;;;;;;12.63;5.35;;;;;;;;;;5037576;28;20049;-75
2022/11/28 09:01:17;;;;;;;16.20;6.47;;;;;;;;;;5043221;28;20072;-75
2022/11/28 09:03:44;;;;;;;20.17;7.45;;;;;;;;;;5048472;28;20321;-76
2022/11/28 09:06:10;;;;;;;19.67;6.72;;;;;;;;;;5042302;28;20044;-75
2022/11/28 09:08:36;;;;;;;27.05;7.43;;;;;;;;;;5053448;28;20499;-80
2022/11/28 09:11:04;;;;;;;32.35;7.50;;;;;;;;;;5046668;28;20156;-77
2022/11/28 09:13:30;;;;;;;6.28;4.20;;;;;;;;;;5050058;28;20085;-74
2022/11/28 09:15:56;;;;;;;14.13;6.00;;;;;;;;;;5043564;28;20071;-76
2022/11/28 09:18:22;;;;;;;7.18;5.13;;;;;;;;;;5055784;28;20124;-75
2022/11/28 09:20:48;;;;;;;21.30;6.88;;;;;;;;;;5041848;28;20535;-75
2022/11/28 09:23:15;;;;;;;18.33;5.75;;;;;;;;;;5042412;28;20089;-76
2022/11/28 09:25:41;;;;;;;15.98;6.30;;;;;;;;;;5046481;28;20037;-76
2022/11/28 09:28:07;;;;;;;12.57;5.68;;;;;;;;;;5042907;28;20042;-75
2022/11/28 09:30:33;;;;;;;10.15;5.10;;;;;;;;;;5045315;28;20036;-74
2022/11/28 09:33:00;;;;;;;10.55;5.10;;;;;;;;;;5058008;28;20080;-79
2022/11/28 09:35:26;;;;;;;6.88;4.80;;;;;;;;;;5046386;28;20086;-77
2022/11/28 09:37:53;;;;;;;11.10;5.05;;;;;;;;;;5047611;28;20033;-79
2022/11/28 09:40:34;;;;;;;7.80;4.85;;;;;;;;;;5045712;28;20120;-78
2022/11/28 09:43:01;;;;;;;24.27;7.40;;;;;;;;;;5055191;28;20029;-78
2022/11/28 09:45:34;;;;;;;8.73;5.93;;;;;;;;;;5046517;28;20486;-78
2022/11/28 09:48:32;;;;;;;9.53;5.23;;;;;;;;;;5046462;28;20040;-78
2022/11/28 09:51:24;;;;;;;9.63;5.82;;;;;;;;;;5043022;28;20435;-77
2022/11/28 09:54:05;;;;;;;17.60;7.57;;;;;;;;;;5058690;28;20025;-77
2022/11/28 09:56:30;;;;;;;17.08;6.78;;;;;;;;;;5047088;28;20025;-77
2022/11/28 09:59:01;;;;;;;9.00;5.00;;;;;;;;;;5062689;28;20390;-78
2022/11/28 10:01:33;;;;;;;15.32;7.32;;;;;;;;;;5035445;28;20036;-77
2022/11/28 10:04:07;;;;;;;7.75;4.72;;;;;;;;;;5040792;28;20382;-77
2022/11/28 10:06:44;;;;;;;14.57;6.20;;;;;;;;;;5044537;28;20059;-76
2022/11/28 10:09:24;;;;;;;11.18;5.57;;;;;;;;;;5048993;28;20049;-78
2022/11/28 10:11:52;;;;;;;24.52;8.57;;;;;;;;;;5046071;28;20033;-77
2022/11/28 10:14:55;;;;;;;7.85;4.93;;;;;;;;;;5041895;28;20021;-77
2022/11/28 10:17:43;;;;;;;7.22;4.88;;;;;;;;;;5048424;28;20094;-77
2022/11/28 10:20:19;;;;;;;8.13;4.90;;;;;;;;;;5038350;28;20033;-78
2022/11/28 10:22:52;;;;;;;7.95;4.80;;;;;;;;;;5047425;28;20128;-77
2022/11/28 10:25:25;;;;;;;12.18;4.95;;;;;;;;;;5059945;28;20032;-76
2022/11/28 10:27:52;;;;;;;10.88;5.72;;;;;;;;;;5043476;28;20042;-77
2022/11/28 10:30:26;;;;;;;10.70;4.82;;;;;;;;;;5058555;28;20037;-77
2022/11/28 10:33:07;;;;;;;14.10;4.93;;;;;;;;;;5046679;28;20553;-76
2022/11/28 10:35:42;;;;;;;13.70;4.80;;;;;;;;;;5045480;28;20037;-77
2022/11/28 10:38:13;;;;;;;16.65;5.60;;;;;;;;;;5040599;28;20116;-76
2022/11/28 10:40:50;;;;;;;6.85;4.55;;;;;;;;;;5037056;28;20175;-74
2022/11/28 10:43:24;;;;;;;8.57;5.20;;;;;;;;;;5042446;28;20037;-77
2022/11/28 10:46:11;;;;;;;8.80;4.60;;;;;;;;;;5049313;28;20045;-77
2022/11/28 10:49:01;;;;;;;18.27;5.13;;;;;;;;;;5041081;28;20037;-76
2022/11/28 10:51:54;;;;;;;9.85;4.53;;;;;;;;;;5044202;28;20029;-77
2022/11/28 10:54:40;;;;;;;5.43;3.72;;;;;;;;;;5042228;28;20102;-77
2022/11/28 10:57:27;;;;;;;11.05;4.57;;;;;;;;;;5043864;28;20103;-77
2022/11/28 11:00:05;;;;;;;15.68;6.07;;;;;;;;;;5049861;28;20051;-78
2022/11/28 11:03:10;;;;;;;22.15;5.47;;;;;;;;;;5039785;28;20490;-77
2022/11/28 11:05:36;;;;;;;5.47;3.80;;;;;;;;;;5085452;28;20052;-77
2022/11/28 11:08:09;;;;;;;5.93;3.95;;;;;;;;;;5062789;28;20492;-78
2022/11/28 11:10:42;;;;;;;12.65;4.57;;;;;;;;;;5076640;28;20394;-77
2022/11/28 11:13:24;;;;;;;14.88;4.93;;;;;;;;;;5080822;28;20052;-75
2022/11/28 11:16:08;;;;;;;19.30;5.75;;;;;;;;;;5070058;28;20522;-77
2022/11/28 11:18:49;;;;;;;10.20;4.90;;;;;;;;;;5068761;28;20088;-78
2022/11/28 11:21:18;;;;;;;7.78;4.78;;;;;;;;;;5070372;28;20494;-77
2022/11/28 11:23:45;;;;;;;16.70;5.88;;;;;;;;;;5070527;28;20025;-77
2022/11/28 11:26:25;;;;;;;6.50;4.60;;;;;;;;;;5070073;28;20086;-78
2022/11/28 11:28:51;;;;;;;11.65;5.45;;;;;;;;;;5070321;28;20102;-77
2022/11/28 11:31:42;;;;;;;7.10;4.30;;;;;;;;;;5070534;28;20457;-77
2022/11/28 11:34:18;;;;;;;7.63;4.07;;;;;;;;;;5069955;28;20104;-77
2022/11/28 11:36:45;;;;;;;9.20;4.40;;;;;;;;;;5046106;28;20045;-78
2022/11/28 11:39:22;;;;;;;7.32;4.35;;;;;;;;;;5030720;28;20018;-78
2022/11/28 11:42:09;;;;;;;12.82;5.82;;;;;;;;;;5047549;28;20033;-77
2022/11/28 11:44:35;;;;;;;8.90;5.38;;;;;;;;;;5060537;28;20041;-75
2022/11/28 11:47:08;;;;;;;16.27;6.50;;;;;;;;;;5031941;28;20021;-77
2022/11/28 11:49:43;;;;;;;8.60;5.13;;;;;;;;;;5032750;28;20029;-77
2022/11/28 11:52:15;;;;;;;6.80;4.63;;;;;;;;;;5032224;28;20534;-77
2022/11/28 11:54:59;;;;;;;12.07;4.70;;;;;;;;;;5031364;28;20113;-78
2022/11/28 11:57:39;;;;;;;5.88;4.40;;;;;;;;;;5032259;28;20030;-77
2022/11/28 12:00:08;;;;;;;9.60;4.93;;;;;;;;;;5047760;28;20060;-77
2022/11/28 12:03:11;;;;;;;8.65;5.25;;;;;;;;;;5039566;28;20485;-76
2022/11/28 12:06:05;;;;;;;9.00;5.10;;;;;;;;;;5051991;28;20056;-78
2022/11/28 12:08:50;;;;;;;6.93;4.63;;;;;;;;;;5050240;28;20118;-76
2022/11/28 12:11:29;;;;;;;6.03;4.65;;;;;;;;;;5054708;28;20043;-77
2022/11/28 12:14:02;;;;;;;6.22;4.28;;;;;;;;;;5054710;28;20057;-79
2022/11/28 12:16:58;;;;;;;18.65;5.63;;;;;;;;;;5054746;28;20051;-77
2022/11/28 12:19:43;;;;;;;9.60;4.70;;;;;;;;;;5055446;28;20061;-76
2022/11/28 12:22:40;;;;;;;7.78;4.30;;;;;;;;;;5055207;28;20048;-76
2022/11/28 12:25:43;;;;;;;13.13;6.72;;;;;;;;;;5055123;28;20068;-76
2022/11/28 12:28:35;;;;;;;8.30;4.88;;;;;;;;;;5055413;28;20045;-75
2022/11/28 12:31:10;;;;;;;15.10;5.10;;;;;;;;;;5061232;28;20060;-77
2022/11/28 12:33:55;;;;;;;13.93;5.78;;;;;;;;;;5054959;28;20036;-75
2022/11/28 12:36:27;;;;;;;7.93;4.25;;;;;;;;;;5055599;28;20032;-75
2022/11/28 12:38:56;;;;;;;20.05;6.13;;;;;;;;;;5055474;28;20021;-75
2022/11/28 12:41:37;;;;;;;12.52;5.10;;;;;;;;;;5054630;28;20025;-75
2022/11/28 12:44:11;;;;;;;7.72;5.35;;;;;;;;;;5069669;28;20041;-74
2022/11/28 12:46:53;;;;;;;14.80;6.85;;;;;;;;;;5054821;28;20490;-74
2022/11/28 12:49:34;;;;;;;25.75;18.70;;;;;;;;;;5054897;28;20040;-75
2022/11/28 12:52:22;;;;;;;10.68;7.47;;;;;;;;;;5054953;28;20033;-75
2022/11/28 12:54:59;;;;;;;6.60;4.38;;;;;;;;;;5055169;28;20040;-76
2022/11/28 12:57:46;;;;;;;7.63;5.30;;;;;;;;;;5055094;28;20112;-75
2022/11/28 13:00:25;;;;;;;10.50;5.43;;;;;;;;;;5054983;28;20462;-75
2022/11/28 13:03:17;;;;;;;9.02;5.00;;;;;;;;;;5054713;28;20060;-77
2022/11/28 13:05:58;;;;;;;9.18;4.72;;;;;;;;;;5055026;28;20518;-76
2022/11/28 13:08:39;;;;;;;11.15;6.28;;;;;;;;;;5054835;28;20037;-78
2022/11/28 13:11:14;;;;;;;14.70;6.13;;;;;;;;;;5070020;28;20060;-77
2022/11/28 13:13:51;;;;;;;7.45;5.00;;;;;;;;;;5069837;28;20037;-76
2022/11/28 13:16:48;;;;;;;6.35;4.68;;;;;;;;;;5053045;28;20033;-76
2022/11/28 13:19:38;;;;;;;7.88;4.88;;;;;;;;;;5054429;28;20028;-77
2022/11/28 13:22:23;;;;;;;6.05;4.90;;;;;;;;;;5042669;28;20399;-77
2022/11/28 13:24:52;;;;;;;7.53;4.90;;;;;;;;;;5053940;28;20029;-76
2022/11/28 13:27:24;;;;;;;9.25;5.65;;;;;;;;;;5054273;28;20048;-76
2022/11/28 13:29:59;;;;;;;13.65;6.20;;;;;;;;;;5054592;28;20128;-76
2022/11/28 13:32:31;;;;;;;8.73;5.82;;;;;;;;;;5054156;28;20086;-75
2022/11/28 13:34:58;;;;;;;8.10;5.38;;;;;;;;;;5054347;28;20044;-77
2022/11/28 13:37:54;;;;;;;16.95;6.20;;;;;;;;;;5053044;28;20025;-75
2022/11/28 13:40:29;;;;;;;16.88;6.20;;;;;;;;;;5053787;28;20033;-77
2022/11/28 13:43:04;;;;;;;7.30;4.45;;;;;;;;;;5052696;28;20511;-74
2022/11/28 13:45:36;;;;;;;10.93;4.90;;;;;;;;;;5053604;28;20029;-79
2022/11/28 13:48:30;;;;;;;11.02;5.80;;;;;;;;;;5053137;28;20067;-76
2022/11/28 13:51:17;;;;;;;7.15;4.57;;;;;;;;;;5069398;28;20033;-80
2022/11/28 13:53:45;;;;;;;9.45;5.40;;;;;;;;;;5053182;28;20486;-78
2022/11/28 13:56:27;;;;;;;21.88;7.40;;;;;;;;;;5070005;28;20024;-78
2022/11/28 13:58:57;;;;;;;18.38;7.32;;;;;;;;;;5069113;28;20383;-78
2022/11/28 14:01:26;;;;;;;24.50;10.85;;;;;;;;;;5069061;28;20082;-79
2022/11/28 14:04:17;;;;;;;12.68;8.20;;;;;;;;;;5053596;28;20075;-78
2022/11/28 14:06:57;;;;;;;15.85;7.25;;;;;;;;;;5051327;28;20095;-78
2022/11/28 14:09:23;;;;;;;16.33;9.13;;;;;;;;;;5053721;28;20403;-78
2022/11/28 14:12:18;;;;;;;15.38;8.05;;;;;;;;;;5069481;28;20025;-78
2022/11/28 14:15:06;;;;;;;7.63;4.70;;;;;;;;;;5037032;28;20029;-78
2022/11/28 14:17:40;;;;;;;13.40;6.55;;;;;;;;;;5054852;28;20051;-78
2022/11/28 14:20:23;;;;;;;16.40;6.97;;;;;;;;;;5054644;28;20470;-79
2022/11/28 14:23:16;;;;;;;13.70;7.00;;;;;;;;;;5054766;28;20491;-76
2022/11/28 14:25:47;;;;;;;10.55;6.15;;;;;;;;;;5054338;28;20032;-78
2022/11/28 14:28:36;;;;;;;19.77;7.40;;;;;;;;;;5070290;28;20053;-78
2022/11/28 14:31:17;;;;;;;18.73;7.72;;;;;;;;;;5053683;28;20094;-77
2022/11/28 14:33:45;;;;;;;16.08;7.22;;;;;;;;;;5051495;28;20037;-79
2022/11/28 14:36:34;;;;;;;13.77;5.97;;;;;;;;;;5051971;28;20507;-79
2022/11/28 14:39:14;;;;;;;7.95;4.97;;;;;;;;;;5068443;28;20029;-78
2022/11/28 14:42:15;;;;;;;15.18;5.78;;;;;;;;;;5052248;28;20514;-78
2022/11/28 14:45:02;;;;;;;9.48;4.50;;;;;;;;;;5041113;28;20056;-79
2022/11/28 14:47:33;;;;;;;8.77;5.30;;;;;;;;;;5068770;28;20457;-78
2022/11/28 14:50:16;;;;;;;12.82;5.75;;;;;;;;;;5051741;28;20037;-78
2022/11/28 14:52:46;;;;;;;7.20;4.20;;;;;;;;;;5051527;28;20039;-77
2022/11/28 14:55:24;;;;;;;15.05;5.30;;;;;;;;;;5068019;28;20040;-79
2022/11/28 14:57:56;;;;;;;9.02;5.80;;;;;;;;;;5051910;28;20021;-77
2022/11/28 15:00:30;;;;;;;8.55;4.85;;;;;;;;;;5050854;28;20180;-79
2022/11/28 15:03:08;;;;;;;8.02;5.75;;;;;;;;;;5052900;28;20124;-79
2022/11/28 15:05:51;;;;;;;12.98;6.57;;;;;;;;;;5052656;28;20112;-79
2022/11/28 15:08:23;;;;;;;7.72;4.60;;;;;;;;;;5048432;28;20029;-78
2022/11/28 15:11:04;;;;;;;8.35;5.13;;;;;;;;;;5052762;28;20036;-78
2022/11/28 15:13:46;;;;;;;7.60;4.45;;;;;;;;;;5052964;28;20138;-78
2022/11/28 15:16:15;;;;;;;9.18;5.88;;;;;;;;;;5051290;28;20033;-76
2022/11/28 15:18:55;;;;;;;7.70;4.32;;;;;;;;;;5050682;28;20356;-77
2022/11/28 15:21:21;;;;;;;6.38;5.03;;;;;;;;;;5050890;28;20044;-78